Accueil
METAR-TAF:

METAR-TAF

Aéroports :

Belize City, Belize

Aéroport international Philip S. W. Goldson

latitude: 17-32N, longitude: 088-18W, altitude: 5 m

Observation

Le bulletin a été fait il y a 36 minutes, à 11:00 UTC
Vent 5 kt de sud-est
Température 28°C
Humidité 89%
Pression 1007 hPa
Visibilité 10 km ou plus
Nuages épars à une hauteur de 1600 ft

METAR: MZBZ 241100Z 13005KT 9999 SCT016 28/26 A2974 Q1007 NOSIG

Heure: 05:36 (11:36 UTC)

Prévision

Le bulletin a été fait il y a 2 heures et 36 minutes, à 09:00 UTC
Prévision valable du 24 à 12 UTC au 25 à 12 UTC
Vent 10 kt de sud-est
Visibilité 10 km ou plus
Nuages épars à une hauteur de 2400 ft

TAF: MZBZ 240900Z 2412/2512 13010KT 9999 SCT024

Observations et prévisions météorologiques de plus de 4000 aéroports (messages METAR et TAF).

Les stations disponibles sont représentées par des disques jaunes et rouges sur la carte.

Passer la souris dessus pour voir le nom de la station.

Cliquer dessus pour voir les observations et prévisions météorologiques.

Pour changer de carte: cliquez sur les boutons verts avec une croix noire pour zoomer, sur le bouton vert avec un tiret pour effectuer un zoom arrière, ou sur les flèches vertes pour les cartes adjacentes.


METAR-TAF: